Time;durP1;ratioP1;P1;durP2;ratioP2;P2;SDS_P1;SDS_P2;PMS_P1;PMS_P2;Temp;Humidity;BMP_temperature;BMP_pressure;BME280_temperature;BME280_humidity;BME280_pressure;Samples;Min_cycle;Max_cycle;Signal;HPM_P1;HPM_P2
2022/05/30 00:01:11;;;;;;;0.40;0.40;;;11.30;99.90;11.10;101206.00;;;;5051184;28;20190;-63
2022/05/30 00:03:38;;;;;;;0.40;0.40;;;11.30;99.90;11.30;101201.00;;;;5035693;28;20180;-64
2022/05/30 00:06:11;;;;;;;0.50;0.50;;;11.30;99.90;11.20;101200.00;;;;5035663;28;20178;-64
2022/05/30 00:08:38;;;;;;;0.50;0.50;;;11.40;99.90;11.30;101194.00;;;;5035235;28;20182;-63
2022/05/30 00:11:08;;;;;;;0.40;0.40;;;11.40;99.90;11.20;101187.00;;;;5050850;28;20202;-64
2022/05/30 00:13:34;;;;;;;0.40;0.40;;;11.50;99.90;11.40;101152.00;;;;5035481;28;20235;-64
2022/05/30 00:16:13;;;;;;;0.40;0.40;;;11.50;99.90;11.50;101188.00;;;;5035668;28;20631;-64
2022/05/30 00:18:40;;;;;;;0.40;0.40;;;11.60;99.90;11.30;101190.00;;;;5034147;28;20236;-64
2022/05/30 00:21:07;;;;;;;0.40;0.40;;;11.60;99.90;10.30;101192.00;;;;5034020;28;20205;-63
2022/05/30 00:23:33;;;;;;;0.47;0.47;;;11.20;99.90;11.00;101183.00;;;;5035292;28;20702;-63
2022/05/30 00:25:59;;;;;;;0.40;0.40;;;11.10;99.90;10.60;101194.00;;;;5050631;28;20221;-63
2022/05/30 00:28:25;;;;;;;0.40;0.40;;;10.90;99.90;10.50;101196.00;;;;5050580;28;20190;-64
2022/05/30 00:30:52;;;;;;;0.40;0.40;;;10.80;99.90;10.40;101179.00;;;;5050960;28;20302;-64
2022/05/30 00:33:18;;;;;;;0.40;0.40;;;10.60;99.90;10.40;101197.00;;;;5035161;28;20187;-63
2022/05/30 00:35:45;;;;;;;0.50;0.50;;;10.50;99.90;10.20;101190.00;;;;5034814;28;20529;-64
2022/05/30 00:38:13;;;;;;;0.50;0.50;;;10.40;99.90;10.10;101190.00;;;;5034988;28;20262;-63
2022/05/30 00:40:40;;;;;;;0.40;0.40;;;10.30;99.90;10.00;101156.00;;;;5035025;28;20175;-63
2022/05/30 00:43:27;;;;;;;0.47;0.47;;;10.20;99.90;10.40;101191.00;;;;5035082;28;20241;-63
2022/05/30 00:45:56;;;;;;;0.50;0.50;;;10.30;99.90;10.10;101188.00;;;;5035164;28;20175;-64
2022/05/30 00:48:28;;;;;;;0.50;0.50;;;10.30;99.90;10.00;101181.00;;;;5034851;28;20179;-64
2022/05/30 00:51:00;;;;;;;0.50;0.50;;;10.20;99.90;10.10;101195.00;;;;5034437;28;20179;-64
2022/05/30 00:53:27;;;;;;;0.50;0.50;;;10.10;99.90;10.10;101187.00;;;;5035227;28;20267;-64
2022/05/30 00:55:53;;;;;;;0.50;0.50;;;10.10;99.90;10.10;101146.00;;;;5033963;28;20194;-64
2022/05/30 00:58:20;;;;;;;0.50;0.50;;;10.20;99.90;10.20;101178.00;;;;5034865;28;20203;-64
2022/05/30 01:00:47;;;;;;;0.50;0.50;;;10.20;99.90;10.00;101146.00;;;;5034851;28;20184;-64
2022/05/30 01:08:42;;;;;;;0.50;0.50;;;10.20;99.90;9.90;101141.00;;;;5034641;28;20194;-63
2022/05/30 01:11:08;;;;;;;0.50;0.50;;;10.10;99.90;10.00;101173.00;;;;5049726;28;20195;-63
2022/05/30 01:13:34;;;;;;;0.50;0.50;;;10.10;99.90;10.10;101179.00;;;;5034425;28;20175;-64
2022/05/30 01:16:00;;;;;;;0.50;0.50;;;10.10;99.90;9.80;101183.00;;;;5034345;28;20174;-64
2022/05/30 01:18:45;;;;;;;0.50;0.50;;;10.00;99.90;10.00;101182.00;;;;5034125;28;20670;-63
2022/05/30 01:21:55;;;;;;;0.50;0.50;;;10.00;99.90;10.00;101180.00;;;;5049503;28;20188;-63
2022/05/30 01:25:00;;;;;;;0.50;0.50;;;10.00;99.90;10.00;101178.00;;;;5049500;28;20182;-63
2022/05/30 01:28:03;;;;;;;0.50;0.50;;;10.00;99.90;10.30;101150.00;;;;5032679;28;20673;-63
2022/05/30 01:30:30;;;;;;;0.50;0.50;;;10.10;99.90;10.10;101158.00;;;;5049639;28;20182;-64
2022/05/30 01:32:58;;;;;;;0.50;0.50;;;10.20;99.90;9.90;101163.00;;;;5034284;28;20222;-63
2022/05/30 01:35:26;;;;;;;0.50;0.50;;;10.10;99.90;9.80;101155.00;;;;5049031;28;20182;-63
2022/05/30 01:37:52;;;;;;;0.50;0.50;;;10.00;99.90;10.20;101156.00;;;;5034168;28;20189;-63
2022/05/30 01:40:18;;;;;;;0.50;0.50;;;10.10;99.90;10.00;101154.00;;;;5034064;28;20187;-63
2022/05/30 01:42:44;;;;;;;0.60;0.60;;;10.10;99.90;9.90;101155.00;;;;5033827;28;20186;-63
2022/05/30 01:45:11;;;;;;;0.50;0.50;;;10.00;99.90;9.80;101122.00;;;;5033967;28;20174;-63
2022/05/30 01:47:37;;;;;;;0.60;0.60;;;10.00;99.90;9.70;101149.00;;;;5033158;28;20295;-63
2022/05/30 01:50:04;;;;;;;0.60;0.60;;;9.90;99.90;9.70;101131.00;;;;5033522;28;20686;-63
2022/05/30 01:52:31;;;;;;;0.60;0.60;;;9.80;99.90;9.60;101151.00;;;;5049219;28;20210;-63
2022/05/30 01:54:57;;;;;;;0.50;0.50;;;9.70;99.90;9.60;101155.00;;;;5033883;28;20261;-64
2022/05/30 01:57:23;;;;;;;0.50;0.50;;;9.70;99.90;9.80;101147.00;;;;5033487;28;20184;-63
2022/05/30 01:59:49;;;;;;;0.60;0.60;;;9.70;99.90;10.00;101152.00;;;;5048972;28;20632;-63
2022/05/30 02:02:14;;;;;;;0.50;0.50;;;10.00;99.90;10.00;101143.00;;;;5033526;28;20191;-63
2022/05/30 02:04:42;;;;;;;0.60;0.60;;;10.00;99.90;9.90;101145.00;;;;5033202;28;20714;-63
2022/05/30 02:07:08;;;;;;;0.60;0.60;;;10.00;99.90;9.80;101144.00;;;;5033464;28;20175;-63
2022/05/30 02:09:34;;;;;;;0.67;0.67;;;9.90;99.90;10.00;101149.00;;;;5033443;28;20182;-63
2022/05/30 02:12:00;;;;;;;0.60;0.60;;;10.00;99.90;10.10;101155.00;;;;5033421;28;20562;-64
2022/05/30 02:14:25;;;;;;;0.50;0.50;;;10.00;99.90;10.20;101140.00;;;;5033518;28;20260;-64
2022/05/30 02:17:01;;;;;;;0.50;0.50;;;10.20;99.90;10.10;101137.00;;;;5033295;28;20491;-64
2022/05/30 02:19:33;;;;;;;0.50;0.50;;;10.10;99.90;9.80;101149.00;;;;5033368;28;20306;-63
2022/05/30 02:22:00;;;;;;;0.50;0.50;;;10.00;99.90;9.80;101144.00;;;;5033394;28;20529;-64
2022/05/30 02:24:27;;;;;;;0.57;0.57;;;9.90;99.90;9.80;101148.00;;;;5033161;28;20236;-63
2022/05/30 02:26:52;;;;;;;0.60;0.60;;;9.90;99.90;9.80;101150.00;;;;5033052;28;20182;-64
2022/05/30 02:29:19;;;;;;;0.50;0.50;;;9.80;99.90;10.00;101140.00;;;;5033500;28;20179;-63
2022/05/30 02:31:45;;;;;;;0.50;0.50;;;9.90;99.90;9.70;101126.00;;;;5032561;28;20626;-63
2022/05/30 02:36:56;;;;;;;0.53;0.53;;;9.90;99.90;9.50;101149.00;;;;5033320;28;20178;-63
2022/05/30 02:39:26;;;;;;;0.60;0.60;;;9.70;99.90;9.80;101141.00;;;;5048678;28;20186;-63
2022/05/30 02:41:53;;;;;;;0.60;0.60;;;9.90;99.90;9.50;101139.00;;;;5033334;28;20561;-63
2022/05/30 02:44:23;;;;;;;0.60;0.60;;;9.70;99.90;9.50;101138.00;;;;5033140;28;20213;-63
2022/05/30 02:46:57;;;;;;;0.50;0.50;;;9.70;99.90;9.50;101147.00;;;;5032711;28;20526;-63
2022/05/30 02:49:24;;;;;;;0.50;0.50;;;9.60;99.90;9.30;101110.00;;;;5033179;28;20179;-63
2022/05/30 02:51:50;;;;;;;0.60;0.60;;;9.50;99.90;9.50;101152.00;;;;5048262;28;20242;-63
2022/05/30 02:54:17;;;;;;;0.60;0.60;;;9.50;99.90;9.30;101145.00;;;;5033455;28;20175;-63
2022/05/30 02:56:56;;;;;;;0.50;0.50;;;9.40;99.90;9.50;101151.00;;;;5032742;28;20659;-64
2022/05/30 02:59:22;;;;;;;0.60;0.60;;;9.50;99.90;9.70;101148.00;;;;5033174;28;20210;-64
2022/05/30 03:01:48;;;;;;;0.50;0.50;;;9.60;99.90;9.50;101157.00;;;;5032697;28;20195;-63
2022/05/30 03:04:15;;;;;;;0.60;0.60;;;9.50;99.90;9.30;101147.00;;;;5032823;28;20369;-64
2022/05/30 03:06:42;;;;;;;0.50;0.50;;;9.50;99.90;9.20;101156.00;;;;5033036;28;20257;-63
2022/05/30 03:09:10;;;;;;;0.60;0.60;;;9.40;99.90;9.20;101159.00;;;;5033020;28;20272;-64
2022/05/30 03:11:36;;;;;;;0.60;0.60;;;9.30;99.90;9.20;101140.00;;;;5032724;28;20248;-64
2022/05/30 03:14:02;;;;;;;0.60;0.60;;;9.30;99.90;8.80;101151.00;;;;5032733;28;20701;-64
2022/05/30 03:16:29;;;;;;;0.60;0.60;;;9.20;99.90;8.90;101148.00;;;;5032568;28;20183;-63
2022/05/30 03:18:54;;;;;;;0.50;0.50;;;9.20;99.90;8.90;101118.00;;;;5034725;28;20171;-63
2022/05/30 03:21:20;;;;;;;0.43;0.43;;;9.20;99.90;9.10;101149.00;;;;5036750;28;20745;-63
2022/05/30 03:23:46;;;;;;;0.50;0.50;;;9.30;99.90;9.20;101154.00;;;;5036616;28;20178;-64
2022/05/30 03:26:13;;;;;;;0.50;0.50;;;9.30;99.90;9.90;101158.00;;;;5036285;28;20185;-63
2022/05/30 03:28:41;;;;;;;0.50;0.50;;;9.70;99.90;9.40;101148.00;;;;5036350;28;20190;-64
2022/05/30 03:31:08;;;;;;;0.50;0.50;;;9.70;99.90;9.50;101162.00;;;;5067797;28;20298;-63
2022/05/30 03:33:36;;;;;;;0.57;0.57;;;9.70;99.90;9.60;101163.00;;;;5036274;28;20183;-64
2022/05/30 03:36:07;;;;;;;0.60;0.60;;;9.70;99.90;9.90;101164.00;;;;5036372;28;20191;-63
2022/05/30 03:38:33;;;;;;;0.60;0.60;;;9.80;99.90;10.20;101167.00;;;;5028479;28;20233;-63
2022/05/30 03:40:59;;;;;;;0.60;0.60;;;10.00;99.90;10.30;101161.00;;;;5016753;28;20182;-63
2022/05/30 03:43:26;;;;;;;0.63;0.63;;;10.30;99.90;10.20;101162.00;;;;5016321;28;20180;-63
2022/05/30 03:45:52;;;;;;;0.60;0.60;;;10.30;99.90;10.30;101158.00;;;;5016150;28;20201;-64
2022/05/30 03:48:20;;;;;;;0.60;0.60;;;10.30;99.90;10.50;101157.00;;;;5016286;28;20959;-64
2022/05/30 03:50:48;;;;;;;0.60;0.60;;;10.40;99.90;9.80;101156.00;;;;5016449;28;20210;-63
2022/05/30 03:53:15;;;;;;;0.60;0.60;;;10.20;99.90;10.00;101165.00;;;;5016154;28;20219;-64
2022/05/30 03:55:44;;;;;;;0.50;0.50;;;10.10;99.90;10.20;101161.00;;;;5016370;28;20183;-64
2022/05/30 03:58:12;;;;;;;0.60;0.60;;;10.30;99.90;10.20;101161.00;;;;5015919;28;20234;-63
2022/05/30 04:00:40;;;;;;;1.57;1.57;;;10.30;99.90;10.20;101168.00;;;;5014533;28;20181;-64
2022/05/30 04:03:07;;;;;;;0.60;0.60;;;10.30;99.90;10.30;101173.00;;;;5015011;28;20671;-64
2022/05/30 04:05:33;;;;;;;0.60;0.60;;;10.30;99.90;10.60;101163.00;;;;5016506;28;20270;-63
2022/05/30 04:08:00;;;;;;;0.60;0.60;;;10.40;99.90;10.80;101171.00;;;;5016018;28;20720;-63
2022/05/30 04:10:26;;;;;;;0.60;0.60;;;10.60;99.90;11.00;101164.00;;;;5016265;28;20259;-63
2022/05/30 04:13:08;;;;;;;0.53;0.53;;;10.90;99.90;10.40;101153.00;;;;5015714;28;20334;-63
2022/05/30 04:15:35;;;;;;;0.60;0.60;;;10.80;99.90;9.90;101153.00;;;;5016082;28;20188;-63
2022/05/30 04:18:01;;;;;;;0.53;0.53;;;10.50;99.90;9.70;101156.00;;;;5015745;28;20186;-63
2022/05/30 04:20:27;;;;;;;0.60;0.60;;;10.30;99.90;10.00;101147.00;;;;5015792;28;20187;-63
2022/05/30 04:22:53;;;;;;;0.60;0.60;;;10.10;99.90;9.90;101162.00;;;;5015905;28;20202;-63
2022/05/30 04:25:19;;;;;;;0.50;0.50;;;10.10;99.90;10.20;101164.00;;;;5015818;28;20619;-63
2022/05/30 04:27:45;;;;;;;0.60;0.60;;;10.20;99.90;10.50;101166.00;;;;5015151;28;20180;-64
2022/05/30 04:30:12;;;;;;;0.60;0.60;;;10.40;99.90;10.70;101157.00;;;;5015389;28;20168;-64
2022/05/30 04:32:38;;;;;;;1.17;1.17;;;10.60;99.90;11.10;101153.00;;;;5015517;28;20274;-63
2022/05/30 04:35:08;;;;;;;0.60;0.60;;;10.90;99.90;11.00;101153.00;;;;5015504;28;20161;-63
2022/05/30 04:37:38;;;;;;;0.60;0.60;;;11.00;99.90;10.80;101158.00;;;;5014102;28;20539;-64
2022/05/30 04:40:04;;;;;;;0.60;0.60;;;10.90;99.90;10.60;101158.00;;;;5015291;28;20183;-63
2022/05/30 04:42:30;;;;;;;0.70;0.70;;;10.70;99.90;10.80;101157.00;;;;5014019;28;20203;-64
2022/05/30 04:44:56;;;;;;;0.50;0.50;;;10.80;99.90;11.20;101157.00;;;;5014110;28;20172;-63
2022/05/30 04:47:22;;;;;;;0.70;0.70;;;11.10;99.90;11.30;101165.00;;;;5015187;28;20188;-64
2022/05/30 04:49:48;;;;;;;0.60;0.60;;;11.20;99.90;11.30;101161.00;;;;5015080;28;20168;-63
2022/05/30 04:52:15;;;;;;;0.60;0.60;;;11.30;99.90;10.90;101157.00;;;;5014970;28;20269;-63
2022/05/30 04:54:41;;;;;;;0.60;0.60;;;11.20;99.90;11.30;101129.00;;;;5015061;28;20199;-64
2022/05/30 04:57:08;;;;;;;0.77;0.77;;;11.30;99.90;11.40;101161.00;;;;5014988;28;20176;-64
2022/05/30 04:59:34;;;;;;;0.60;0.60;;;11.30;99.90;11.00;101153.00;;;;5013741;28;20184;-64
2022/05/30 05:02:02;;;;;;;0.60;0.60;;;11.20;99.90;11.60;101158.00;;;;5013668;28;20662;-63
2022/05/30 05:04:28;;;;;;;0.60;0.60;;;11.40;99.90;11.90;101128.00;;;;5014791;28;20164;-63
2022/05/30 05:06:53;;;;;;;0.60;0.60;;;11.70;99.90;11.20;101153.00;;;;5014936;28;20537;-64
2022/05/30 05:09:52;;;;;;;0.53;0.53;;;11.70;99.90;10.90;101159.00;;;;5014513;28;20180;-64
2022/05/30 05:12:18;;;;;;;0.60;0.60;;;11.30;99.90;11.70;101162.00;;;;5014537;28;20286;-63
2022/05/30 05:14:44;;;;;;;0.60;0.60;;;11.60;99.90;12.40;101156.00;;;;5014491;28;20192;-63
2022/05/30 05:17:10;;;;;;;0.70;0.70;;;12.10;99.90;12.60;101161.00;;;;5014671;28;20236;-64
2022/05/30 05:19:41;;;;;;;0.77;0.77;;;12.40;99.90;13.00;101158.00;;;;5014833;28;20257;-64
2022/05/30 05:22:12;;;;;;;0.50;0.50;;;12.80;99.90;13.00;101121.00;;;;5014406;28;20186;-61
2022/05/30 05:24:38;;;;;;;0.50;0.50;;;12.90;99.90;12.60;101158.00;;;;5014482;28;20180;-61
2022/05/30 05:27:05;;;;;;;0.47;0.47;;;12.90;99.90;12.60;101141.00;;;;5014491;28;20187;-64
2022/05/30 05:29:31;;;;;;;0.40;0.40;;;12.70;99.90;12.50;101154.00;;;;5014612;28;20172;-63
2022/05/30 05:31:57;;;;;;;0.37;0.37;;;12.70;99.90;13.20;101160.00;;;;5014201;28;20212;-61
2022/05/30 05:34:23;;;;;;;0.30;0.30;;;13.00;99.90;13.50;101120.00;;;;5014144;28;20183;-62
2022/05/30 05:36:49;;;;;;;0.40;0.40;;;13.30;99.90;13.50;101155.00;;;;5014283;28;20182;-64
2022/05/30 05:39:17;;;;;;;0.40;0.40;;;13.50;99.90;13.50;101125.00;;;;5014309;28;20179;-64
2022/05/30 05:41:46;;;;;;;0.40;0.40;;;13.50;99.90;13.70;101157.00;;;;5013596;28;20196;-64
2022/05/30 05:44:14;;;;;;;0.60;0.60;;;13.60;99.90;13.90;101165.00;;;;5014383;28;20186;-64
2022/05/30 05:46:40;;;;;;;2.10;2.00;;;13.70;99.90;12.60;101170.00;;;;5014218;28;20187;-63
2022/05/30 05:49:09;;;;;;;0.30;0.30;;;13.50;99.90;11.90;101155.00;;;;5013958;28;20267;-63
2022/05/30 05:51:37;;;;;;;0.20;0.20;;;12.80;99.90;11.50;101136.00;;;;5014255;28;20212;-63
2022/05/30 05:54:03;;;;;;;0.30;0.30;;;12.30;99.90;11.80;101132.00;;;;5013939;28;20178;-63
2022/05/30 05:56:30;;;;;;;0.43;0.43;;;12.20;99.90;12.60;101164.00;;;;5012540;28;20247;-63
2022/05/30 05:58:57;;;;;;;0.50;0.50;;;12.70;99.90;12.30;101164.00;;;;5014036;28;20163;-63
2022/05/30 06:01:26;;;;;;;0.20;0.20;;;12.90;99.90;11.70;101113.00;;;;5013655;28;20196;-63
2022/05/30 06:04:00;;;;;;;0.20;0.20;;;12.60;99.90;12.10;101163.00;;;;5013293;28;20191;-63
2022/05/30 06:06:27;;;;;;;0.20;0.20;;;12.50;99.90;12.50;101180.00;;;;5013842;28;20187;-64
2022/05/30 06:08:56;;;;;;;0.40;0.40;;;12.80;99.90;13.30;101182.00;;;;5013881;28;20231;-61
2022/05/30 06:11:24;;;;;;;0.20;0.20;;;13.20;99.90;12.80;101172.00;;;;5013785;28;20665;-61
2022/05/30 06:13:50;;;;;;;0.20;0.20;;;13.40;99.90;13.40;101177.00;;;;5013729;28;20254;-62
2022/05/30 06:16:23;;;;;;;0.40;0.40;;;13.80;99.90;15.20;101208.00;;;;5013840;28;20231;-62
2022/05/30 06:18:51;;;;;;;0.60;0.40;;;15.10;99.90;15.90;101208.00;;;;5014067;28;20180;-63
2022/05/30 06:21:18;;;;;;;0.20;0.20;;;15.70;99.90;18.70;101260.00;;;;5012351;28;20188;-63
2022/05/30 06:23:45;;;;;;;1.95;1.85;;;17.60;99.90;18.00;101287.00;;;;5012266;28;20172;-63
2022/05/30 06:26:12;;;;;;;0.98;0.98;;;18.10;99.90;19.30;101314.00;;;;5013451;28;20647;-63
2022/05/30 06:28:40;;;;;;;0.20;0.20;;;18.80;99.90;19.90;101333.00;;;;5013604;28;20187;-63
2022/05/30 06:31:18;;;;;;;0.10;0.10;;;19.80;99.90;14.10;101283.00;;;;5012262;28;20198;-63
2022/05/30 06:33:44;;;;;;;0.20;0.20;;;16.10;99.90;14.30;101264.00;;;;5013510;28;20526;-63
2022/05/30 06:36:14;;;;;;;0.10;0.10;;;15.30;99.90;12.90;101176.00;;;;5013616;28;20173;-62
2022/05/30 06:38:40;;;;;;;0.20;0.20;;;14.10;99.90;14.80;101227.00;;;;5013333;28;20310;-63
2022/05/30 06:41:37;;;;;;;0.10;0.10;;;14.30;99.90;15.00;101266.00;;;;5013390;28;20157;-63
2022/05/30 06:44:06;;;;;;;0.10;0.10;;;14.90;99.90;18.30;101322.00;;;;5009065;28;20657;-63
2022/05/30 06:46:36;;;;;;;0.25;0.25;;;16.80;99.90;20.60;101352.00;;;;5013314;28;20180;-63
2022/05/30 06:49:04;;;;;;;0.10;0.10;;;19.00;99.90;19.00;101367.00;;;;5012409;28;20190;-63
2022/05/30 06:51:31;;;;;;;0.35;0.35;;;19.60;99.90;22.40;101383.00;;;;5013083;28;20206;-63
2022/05/30 06:53:57;;;;;;;0.10;0.10;;;20.90;99.90;21.90;101375.00;;;;5015243;28;20160;-63
2022/05/30 06:56:29;;;;;;;0.20;0.20;;;21.30;99.90;24.50;101384.00;;;;5017295;28;20266;-64
2022/05/30 06:58:56;;;;;;;0.10;0.10;;;22.90;99.90;26.10;101310.00;;;;5017542;28;20179;-63
2022/05/30 07:01:30;;;;;;;0.30;0.30;;;24.70;99.90;18.20;101323.00;;;;5015775;28;20299;-63
2022/05/30 07:03:56;;;;;;;0.10;0.10;;;22.00;97.30;19.70;101337.00;;;;5017215;28;20178;-63
2022/05/30 07:06:26;;;;;;;0.10;0.10;;;20.50;99.90;23.80;101320.00;;;;5017073;28;20542;-63
2022/05/30 07:08:53;;;;;;;0.13;0.13;;;22.20;99.90;24.60;101304.00;;;;5016872;28;20215;-64
2022/05/30 07:11:22;;;;;;;0.10;0.10;;;23.60;98.20;26.00;101290.00;;;;5015751;28;20183;-64
2022/05/30 07:13:49;;;;;;;0.10;0.10;;;24.80;96.80;26.70;101274.00;;;;5015780;28;20226;-64
2022/05/30 07:16:15;;;;;;;0.13;0.13;;;25.80;93.90;24.90;101281.00;;;;5016774;28;20210;-64
2022/05/30 07:18:46;;;;;;;0.10;0.10;;;25.40;91.70;25.40;101284.00;;;;5017128;28;20183;-64
2022/05/30 07:21:14;;;;;;;0.10;0.10;;;25.40;90.40;27.30;101284.00;;;;5016734;28;20222;-62
2022/05/30 07:23:41;;;;;;;0.65;0.65;;;26.30;90.60;29.00;101250.00;;;;5016791;28;20218;-62
2022/05/30 07:26:13;;;;;;;0.10;0.10;;;27.60;86.60;23.00;101301.00;;;;5016580;28;20191;-64
2022/05/30 07:28:39;;;;;;;0.10;0.10;;;26.00;83.40;25.60;101301.00;;;;5016585;28;20179;-64
2022/05/30 07:31:09;;;;;;;0.10;0.10;;;25.60;86.00;24.50;101304.00;;;;5015213;28;20192;-61
2022/05/30 07:33:38;;;;;;;0.43;0.43;;;25.50;84.70;15.70;101333.00;;;;5016730;28;20219;-63
2022/05/30 07:36:11;;;;;;;0.10;0.10;;;20.10;90.90;16.90;101327.00;;;;5016269;28;20591;-63
2022/05/30 07:38:37;;;;;;;1.35;1.35;;;17.90;95.50;18.70;101359.00;;;;5016494;28;20230;-64
2022/05/30 07:41:03;;;;;;;0.10;0.10;;;18.00;96.80;18.50;101363.00;;;;5016376;28;20237;-64
2022/05/30 07:43:29;;;;;;;0.10;0.10;;;18.00;98.20;16.90;101325.00;;;;5016594;28;20577;-64
2022/05/30 07:46:03;;;;;;;0.50;0.50;;;17.00;99.90;14.60;101348.00;;;;5015701;28;20192;-63
2022/05/30 07:48:30;;;;;;;0.20;0.20;;;15.80;99.90;15.50;101332.00;;;;5016150;28;20190;-64
2022/05/30 07:50:57;;;;;;;0.30;0.30;;;15.40;99.90;14.80;101339.00;;;;5014902;28;20239;-63
2022/05/30 07:53:27;;;;;;;2.13;0.63;;;15.10;99.90;15.60;101352.00;;;;5016052;28;20208;-63
2022/05/30 07:55:53;;;;;;;0.10;0.10;;;15.20;99.90;14.90;101345.00;;;;5016152;28;20191;-63
2022/05/30 07:58:20;;;;;;;1.60;1.60;;;15.00;99.90;14.60;101347.00;;;;5016112;28;20224;-63
2022/05/30 08:00:49;;;;;;;0.10;0.10;;;14.70;99.90;14.50;101346.00;;;;5016154;28;20199;-63
2022/05/30 08:03:16;;;;;;;0.20;0.20;;;14.60;99.90;13.50;101316.00;;;;5014785;28;20209;-62
2022/05/30 08:05:43;;;;;;;2.23;0.83;;;14.10;99.90;13.70;101313.00;;;;5015379;28;20179;-62
2022/05/30 08:08:10;;;;;;;0.10;0.10;;;13.90;99.90;14.10;101257.00;;;;5015771;28;20181;-62
2022/05/30 08:10:36;;;;;;;0.20;0.20;;;14.00;99.90;14.10;101305.00;;;;5016440;28;20173;-63
2022/05/30 08:13:03;;;;;;;0.40;0.40;;;14.10;99.90;14.20;101302.00;;;;5014856;28;20184;-62
2022/05/30 08:15:30;;;;;;;0.30;0.30;;;14.10;99.90;13.10;101254.00;;;;5016014;28;20211;-62
2022/05/30 08:17:58;;;;;;;0.47;0.47;;;13.70;99.90;13.90;101297.00;;;;5015750;28;20236;-62
2022/05/30 08:20:29;;;;;;;0.30;0.30;;;13.70;99.90;13.50;101293.00;;;;5015542;28;20186;-62
2022/05/30 08:22:55;;;;;;;0.77;0.77;;;13.60;99.90;14.30;101309.00;;;;5015774;28;20193;-62
2022/05/30 08:25:21;;;;;;;0.23;0.23;;;13.80;99.90;14.10;101302.00;;;;5015584;28;20176;-62
2022/05/30 08:27:48;;;;;;;1.70;1.03;;;14.00;99.90;14.30;101324.00;;;;5015635;28;20270;-62
2022/05/30 08:30:19;;;;;;;0.20;0.20;;;14.10;99.90;13.90;101305.00;;;;5015646;28;20216;-63
2022/05/30 08:32:47;;;;;;;0.20;0.20;;;14.00;99.90;13.80;101293.00;;;;5015470;28;20228;-62
2022/05/30 08:35:16;;;;;;;0.10;0.10;;;13.90;99.90;14.10;101322.00;;;;5015335;28;20207;-62
2022/05/30 08:37:46;;;;;;;0.20;0.20;;;13.90;99.90;14.40;101275.00;;;;5015179;28;20535;-64
2022/05/30 08:43:13;;;;;;;0.20;0.20;;;13.90;99.90;13.60;101310.00;;;;5015272;28;20211;-63
2022/05/30 08:45:41;;;;;;;0.20;0.20;;;13.70;99.90;14.20;101325.00;;;;5015246;28;20185;-62
2022/05/30 08:48:53;;;;;;;0.30;0.30;;;13.90;99.90;14.50;101337.00;;;;5015016;28;20177;-63
2022/05/30 08:51:44;;;;;;;0.10;0.10;;;14.10;99.90;13.60;101332.00;;;;5014903;28;20606;-63
2022/05/30 08:54:58;;;;;;;0.13;0.13;;;14.00;99.90;14.80;101340.00;;;;5015039;28;20183;-63
2022/05/30 08:57:40;;;;;;;0.10;0.10;;;14.30;99.90;15.30;101365.00;;;;5014882;28;20186;-63
2022/05/30 09:00:48;;;;;;;0.13;0.13;;;14.80;99.90;15.30;101385.00;;;;5014009;28;20190;-63
2022/05/30 09:03:42;;;;;;;0.10;0.10;;;15.10;99.90;15.70;101370.00;;;;5026804;28;20234;-63
2022/05/30 09:06:23;;;;;;;0.10;0.10;;;15.20;99.90;15.40;101364.00;;;;5014047;28;20186;-63
2022/05/30 09:08:55;;;;;;;0.20;0.20;;;15.20;99.90;14.70;101320.00;;;;5014673;28;20628;-63
2022/05/30 09:11:24;;;;;;;0.10;0.10;;;15.10;99.90;14.90;101372.00;;;;5013844;28;20184;-63
2022/05/30 09:13:51;;;;;;;0.30;0.30;;;14.80;99.90;15.80;101375.00;;;;5014634;28;20183;-63
2022/05/30 09:16:29;;;;;;;0.10;0.10;;;15.20;99.90;16.10;101378.00;;;;5013974;28;20592;-63
2022/05/30 09:18:58;;;;;;;0.10;0.10;;;15.50;99.90;15.40;101329.00;;;;5014319;28;20644;-63
2022/05/30 09:21:30;;;;;;;0.10;0.10;;;15.30;99.90;15.70;101369.00;;;;5013395;28;20178;-63
2022/05/30 09:23:56;;;;;;;0.10;0.10;;;15.40;99.90;16.00;101381.00;;;;5014705;28;20181;-63
2022/05/30 09:26:27;;;;;;;0.20;0.20;;;15.50;99.90;16.30;101374.00;;;;5014580;28;20693;-63
2022/05/30 09:28:55;;;;;;;0.10;0.10;;;15.70;99.90;15.50;101337.00;;;;5013384;28;20184;-63
2022/05/30 09:31:21;;;;;;;0.10;0.10;;;15.60;99.90;14.20;101361.00;;;;5014428;28;20192;-62
2022/05/30 09:33:54;;;;;;;0.13;0.13;;;14.80;99.90;14.00;101355.00;;;;5013953;28;20546;-63
2022/05/30 09:36:31;;;;;;;0.10;0.10;;;14.30;99.90;14.80;101360.00;;;;5013406;28;20185;-62
2022/05/30 09:39:15;;;;;;;0.10;0.10;;;14.60;99.90;14.60;101366.00;;;;5013096;28;20682;-63
2022/05/30 09:41:41;;;;;;;0.10;0.10;;;14.50;99.90;14.50;101367.00;;;;5014135;28;20287;-63
2022/05/30 09:44:17;;;;;;;0.10;0.10;;;14.40;99.90;14.40;101364.00;;;;5014431;28;20271;-63
2022/05/30 09:46:50;;;;;;;0.10;0.10;;;14.50;99.90;14.90;101366.00;;;;5014038;28;20178;-62
2022/05/30 09:49:38;;;;;;;0.10;0.10;;;14.60;99.90;14.80;101363.00;;;;5014009;28;20180;-62
2022/05/30 09:52:33;;;;;;;0.10;0.10;;;14.50;99.90;14.40;101371.00;;;;5014072;28;20219;-62
2022/05/30 09:55:01;;;;;;;0.10;0.10;;;14.40;99.90;14.90;101372.00;;;;5013945;28;20265;-63
2022/05/30 09:57:42;;;;;;;0.10;0.10;;;14.60;99.90;14.70;101365.00;;;;5014099;28;20179;-63
2022/05/30 10:00:39;;;;;;;0.10;0.10;;;14.80;99.90;14.60;101360.00;;;;5013939;28;20185;-63
2022/05/30 10:03:31;;;;;;;0.10;0.10;;;14.60;99.90;15.50;101381.00;;;;5013230;28;20223;-63
2022/05/30 10:06:22;;;;;;;0.10;0.10;;;14.90;99.90;15.60;101360.00;;;;5013900;28;20235;-63
2022/05/30 10:08:48;;;;;;;0.10;0.10;;;15.10;99.90;14.10;101358.00;;;;5012601;28;20180;-63
2022/05/30 10:11:32;;;;;;;1.10;0.93;;;14.50;99.90;14.90;101365.00;;;;5014007;28;20183;-63
2022/05/30 10:13:59;;;;;;;0.10;0.10;;;14.80;99.90;14.20;101375.00;;;;5013988;28;20184;-62
2022/05/30 10:16:35;;;;;;;0.10;0.10;;;14.40;99.90;15.80;101388.00;;;;5012366;28;20191;-64
2022/05/30 10:19:10;;;;;;;0.10;0.10;;;15.10;99.90;16.40;101392.00;;;;5012711;28;20170;-64
2022/05/30 10:33:49;;;;;;;0.10;0.10;;;15.70;99.90;15.30;101377.00;;;;5111390;27;20604;-63
2022/05/30 10:36:32;;;;;;;0.10;0.10;;;15.60;99.90;15.80;101383.00;;;;5106328;28;20191;-64
2022/05/30 10:39:22;;;;;;;0.10;0.10;;;15.80;99.90;15.80;101384.00;;;;5091226;28;20172;-63
2022/05/30 10:42:13;;;;;;;0.10;0.10;;;15.70;99.90;17.30;101385.00;;;;5090744;28;20184;-64
2022/05/30 10:44:46;;;;;;;1.33;0.90;;;16.30;99.90;16.00;101379.00;;;;5090350;28;20179;-63
2022/05/30 10:47:45;;;;;;;0.10;0.10;;;16.50;99.90;17.10;101378.00;;;;5106105;28;20699;-63
2022/05/30 10:50:43;;;;;;;0.20;0.20;;;16.40;99.90;17.00;101381.00;;;;5090935;28;20622;-63
2022/05/30 10:53:18;;;;;;;0.10;0.10;;;16.70;99.90;16.30;101345.00;;;;5090434;28;20256;-64
2022/05/30 10:55:48;;;;;;;1.23;0.40;;;16.50;99.90;16.70;101347.00;;;;5090440;28;20240;-63
2022/05/30 10:58:42;;;;;;;0.10;0.10;;;16.60;99.90;17.20;101374.00;;;;5106179;28;20222;-63
2022/05/30 11:01:40;;;;;;;0.10;0.10;;;16.70;99.90;18.30;101400.00;;;;5105809;28;20534;-64
2022/05/30 11:04:27;;;;;;;0.10;0.10;;;17.60;99.90;18.80;101396.00;;;;5089286;28;20178;-64
2022/05/30 11:07:04;;;;;;;0.10;0.10;;;18.30;99.90;19.20;101395.00;;;;5089994;28;20181;-64
2022/05/30 11:10:04;;;;;;;1.35;1.35;;;18.90;99.90;20.70;101375.00;;;;5106078;28;20200;-64
2022/05/30 11:12:38;;;;;;;0.10;0.10;;;20.30;99.90;20.00;101379.00;;;;5069152;28;20212;-64
2022/05/30 11:15:23;;;;;;;0.10;0.10;;;19.90;99.90;16.50;101400.00;;;;5089083;28;20257;-63
2022/05/30 11:18:49;;;;;;;0.20;0.20;;;18.00;99.90;17.30;101397.00;;;;5105722;28;20229;-63
2022/05/30 11:21:52;;;;;;;0.43;0.43;;;17.10;99.90;20.00;101373.00;;;;5090032;28;20177;-64
2022/05/30 11:24:18;;;;;;;0.25;0.25;;;19.30;99.90;19.70;101364.00;;;;5105668;28;20509;-64
2022/05/30 11:27:09;;;;;;;0.10;0.10;;;19.90;99.90;19.80;101327.00;;;;5105693;28;20212;-64
2022/05/30 11:30:02;;;;;;;0.20;0.20;;;19.90;99.90;19.50;101374.00;;;;5105445;28;20194;-63
2022/05/30 11:32:58;;;;;;;0.10;0.10;;;20.00;99.90;18.90;101380.00;;;;5089836;28;20213;-63